La rose des vents
Donnes mto: Semaine 28/03/22 - 03/04/22 (S 13)
Date Horaire Temp. E. Hum. E. P.atmo. Pluie Vent 1mn Direction Ensoleilleme Ev.Tr. Solaire P. de rose Temp au vent Rafales
28/03/2022 00:00 13,9 C 27 % 1025,1 hPa 0,0 mm 0,7 km/h (0 Bft) NO 0,00 h 0,051 mm 0 W/m -5,0 C 13,9 C 2,2 km/h (1 Bft)
28/03/2022 01:00 13,9 C 25 % 1025,0 hPa 0,0 mm 0,2 km/h (0 Bft) NO 0,00 h 0,051 mm 0 W/m -5,7 C 13,9 C 1,1 km/h (0 Bft)
28/03/2022 02:00 13,9 C 25 % 1024,6 hPa 0,0 mm 0,0 km/h (0 Bft) N 0,00 h 0,051 mm 0 W/m -5,9 C 13,9 C 0,2 km/h (0 Bft)
28/03/2022 03:00 13,7 C 24 % 1024,0 hPa 0,0 mm 0,0 km/h (0 Bft) N 0,00 h 0,051 mm 0 W/m -6,4 C 13,7 C 0,2 km/h (0 Bft)
28/03/2022 04:00 13,5 C 25 % 1023,6 hPa 0,0 mm 0,5 km/h (0 Bft) NO 0,00 h 0,051 mm 0 W/m -6,1 C 13,5 C 0,8 km/h (0 Bft)
28/03/2022 05:00 12,6 C 26 % 1023,7 hPa 0,0 mm 0,2 km/h (0 Bft) NO 0,00 h 0,051 mm 0 W/m -6,5 C 12,6 C 1,0 km/h (0 Bft)
28/03/2022 06:00 12,0 C 28 % 1023,7 hPa 0,0 mm 0,0 km/h (0 Bft) NO 0,00 h 0,051 mm 0 W/m -6,0 C 12,0 C 0,9 km/h (0 Bft)
28/03/2022 07:00 11,4 C 29 % 1024,1 hPa 0,0 mm 0,1 km/h (0 Bft) NO 0,00 h 0,051 mm 12 W/m -6,1 C 11,4 C 0,7 km/h (0 Bft)
28/03/2022 08:00 11,7 C 30 % 1024,3 hPa 0,0 mm 0,5 km/h (0 Bft) NO 0,00 h 0,025 mm 62 W/m -5,1 C 11,7 C 1,9 km/h (1 Bft)
28/03/2022 09:00 14,2 C 30 % 1024,3 hPa 0,0 mm 0,0 km/h (0 Bft) N 0,80 h 0,051 mm 251 W/m -3,0 C 14,2 C 0,0 km/h (0 Bft)
28/03/2022 10:00 19,1 C 26 % 1024,3 hPa 0,0 mm 0,1 km/h (0 Bft) NO 1,00 h 0,127 mm 428 W/m -0,7 C 19,1 C 0,6 km/h (0 Bft)
28/03/2022 11:00 22,1 C 23 % 1024,4 hPa 0,0 mm 1,7 km/h (1 Bft) S 1,00 h 0,254 mm 562 W/m -0,2 C 22,1 C 4,6 km/h (1 Bft)
28/03/2022 12:00 23,8 C 20 % 1023,9 hPa 0,0 mm 2,8 km/h (1 Bft) S 1,00 h 0,356 mm 654 W/m -0,4 C 23,8 C 6,7 km/h (2 Bft)
28/03/2022 13:00 23,4 C 20 % 1023,5 hPa 0,0 mm 2,5 km/h (1 Bft) E 1,00 h 0,457 mm 692 W/m -1,2 C 23,4 C 7,0 km/h (2 Bft)
28/03/2022 14:00 23,3 C 19 % 1023,1 hPa 0,0 mm 1,3 km/h (1 Bft) E-SE 1,00 h 0,457 mm 674 W/m -1,3 C 23,3 C 4,9 km/h (1 Bft)
28/03/2022 15:00 23,0 C 20 % 1022,2 hPa 0,0 mm 1,4 km/h (1 Bft) E 1,00 h 0,432 mm 594 W/m -1,0 C 23,0 C 4,8 km/h (1 Bft)
28/03/2022 16:00 21,7 C 24 % 1021,4 hPa 0,0 mm 1,5 km/h (1 Bft) E 1,00 h 0,381 mm 452 W/m 0,0 C 21,7 C 4,9 km/h (1 Bft)
28/03/2022 17:00 20,8 C 25 % 1020,8 hPa 0,0 mm 0,7 km/h (0 Bft) E 1,00 h 0,305 mm 329 W/m 0,2 C 20,8 C 3,4 km/h (1 Bft)
28/03/2022 18:00 19,1 C 28 % 1020,5 hPa 0,0 mm 0,0 km/h (0 Bft) E 0,75 h 0,203 mm 150 W/m 0,3 C 19,1 C 0,5 km/h (0 Bft)
28/03/2022 19:00 16,9 C 33 % 1020,2 hPa 0,0 mm 0,0 km/h (0 Bft) N 0,00 h 0,102 mm 26 W/m 0,5 C 16,9 C 0,0 km/h (0 Bft)
28/03/2022 20:00 15,0 C 37 % 1019,8 hPa 0,0 mm 0,0 km/h (0 Bft) N 0,00 h 0,025 mm 0 W/m 0,5 C 15,0 C 0,0 km/h (0 Bft)
28/03/2022 21:00 13,4 C 37 % 1019,6 hPa 0,0 mm 0,0 km/h (0 Bft) N 0,00 h 0,000 mm 0 W/m -0,8 C 13,4 C 0,0 km/h (0 Bft)
28/03/2022 22:00 12,9 C 35 % 1019,4 hPa 0,0 mm 0,1 km/h (0 Bft) E 0,00 h 0,051 mm 0 W/m -2,3 C 12,9 C 0,9 km/h (0 Bft)
28/03/2022 23:00 12,9 C 35 % 1019,2 hPa 0,0 mm 0,2 km/h (0 Bft) E 0,00 h 0,051 mm 0 W/m -2,4 C 12,9 C 1,0 km/h (0 Bft)
29/03/2022 00:00 12,2 C 34 % 1019,2 hPa 0,0 mm 0,0 km/h (0 Bft) N 0,00 h 0,051 mm 0 W/m -3,1 C 12,2 C 0,0 km/h (0 Bft)
29/03/2022 01:00 12,1 C 34 % 1018,1 hPa 0,0 mm 0,0 km/h (0 Bft) E 0,00 h 0,051 mm 0 W/m -3,2 C 12,1 C 0,3 km/h (0 Bft)
29/03/2022 02:00 12,4 C 34 % 1017,2 hPa 0,0 mm 0,5 km/h (0 Bft) E 0,00 h 0,051 mm 0 W/m -3,2 C 12,4 C 2,2 km/h (1 Bft)
29/03/2022 03:00 12,6 C 34 % 1016,5 hPa 0,0 mm 0,9 km/h (0 Bft) E 0,00 h 0,051 mm 0 W/m -3,0 C 12,6 C 2,6 km/h (1 Bft)
29/03/2022 04:00 12,4 C 34 % 1015,8 hPa 0,0 mm 0,4 km/h (0 Bft) E 0,00 h 0,051 mm 0 W/m -2,8 C 12,4 C 1,7 km/h (1 Bft)
29/03/2022 05:00 11,8 C 36 % 1015,6 hPa 0,0 mm 0,2 km/h (0 Bft) E 0,00 h 0,051 mm 0 W/m -2,6 C 11,8 C 0,7 km/h (0 Bft)
29/03/2022 06:00 10,6 C 41 % 1015,7 hPa 0,0 mm 0,9 km/h (0 Bft) E 0,00 h 0,051 mm 0 W/m -2,3 C 10,6 C 1,9 km/h (1 Bft)
29/03/2022 07:00 9,7 C 43 % 1015,9 hPa 0,0 mm 0,3 km/h (0 Bft) E 0,00 h 0,051 mm 15 W/m -2,2 C 9,7 C 0,8 km/h (0 Bft)
29/03/2022 08:00 9,8 C 46 % 1016,0 hPa 0,0 mm 0,0 km/h (0 Bft) E 0,00 h 0,025 mm 92 W/m -1,2 C 9,8 C 0,2 km/h (0 Bft)
29/03/2022 09:00 12,5 C 43 % 1016,0 hPa 0,0 mm 0,6 km/h (0 Bft) E 0,50 h 0,051 mm 212 W/m 0,2 C 12,5 C 2,1 km/h (1 Bft)
29/03/2022 10:00 14,9 C 43 % 1015,8 hPa 0,0 mm 0,4 km/h (0 Bft) E 0,67 h 0,127 mm 337 W/m 2,5 C 14,9 C 2,1 km/h (1 Bft)
29/03/2022 11:00 17,3 C 55 % 1015,6 hPa 0,0 mm 1,9 km/h (1 Bft) E 1,00 h 0,178 mm 534 W/m 8,1 C 17,3 C 5,5 km/h (1 Bft)
29/03/2022 12:00 17,5 C 55 % 1015,4 hPa 0,0 mm 2,0 km/h (1 Bft) E-SE 1,00 h 0,305 mm 639 W/m 8,2 C 17,5 C 5,7 km/h (1 Bft)
29/03/2022 13:00 17,5 C 56 % 1014,5 hPa 0,0 mm 2,3 km/h (1 Bft) E-SE 0,73 h 0,356 mm 556 W/m 8,6 C 17,5 C 6,1 km/h (2 Bft)
29/03/2022 14:00 17,7 C 58 % 1013,4 hPa 0,0 mm 1,9 km/h (1 Bft) E 0,95 h 0,330 mm 589 W/m 9,5 C 17,7 C 6,2 km/h (2 Bft)
29/03/2022 15:00 17,1 C 61 % 1012,6 hPa 0,0 mm 2,0 km/h (1 Bft) E 0,82 h 0,330 mm 441 W/m 9,5 C 17,1 C 5,7 km/h (1 Bft)
29/03/2022 16:00 16,8 C 61 % 1011,3 hPa 0,0 mm 0,9 km/h (0 Bft) E 0,80 h 0,254 mm 366 W/m 9,2 C 16,8 C 3,3 km/h (1 Bft)
29/03/2022 17:00 15,6 C 66 % 1010,8 hPa 0,0 mm 1,4 km/h (1 Bft) E 0,38 h 0,203 mm 227 W/m 9,2 C 15,6 C 4,1 km/h (1 Bft)
29/03/2022 18:00 13,9 C 73 % 1010,6 hPa 0,0 mm 0,5 km/h (0 Bft) E 0,00 h 0,127 mm 98 W/m 9,2 C 13,9 C 1,8 km/h (1 Bft)
29/03/2022 19:00 12,8 C 77 % 1010,3 hPa 0,0 mm 0,0 km/h (0 Bft) N 0,00 h 0,051 mm 23 W/m 8,8 C 12,8 C 0,0 km/h (0 Bft)
29/03/2022 20:00 11,7 C 81 % 1010,3 hPa 0,0 mm 0,0 km/h (0 Bft) N 0,00 h 0,025 mm 0 W/m 8,4 C 11,7 C 0,0 km/h (0 Bft)
29/03/2022 21:00 10,9 C 83 % 1010,2 hPa 0,0 mm 0,0 km/h (0 Bft) N 0,00 h 0,000 mm 0 W/m 8,1 C 10,9 C 0,0 km/h (0 Bft)
29/03/2022 22:00 10,6 C 85 % 1009,0 hPa 0,0 mm 0,0 km/h (0 Bft) N 0,00 h 0,025 mm 0 W/m 8,1 C 10,6 C 0,0 km/h (0 Bft)
29/03/2022 23:00 10,2 C 87 % 1008,3 hPa 0,0 mm 0,6 km/h (0 Bft) E 0,00 h 0,000 mm 0 W/m 8,2 C 10,2 C 1,3 km/h (1 Bft)
30/03/2022 00:00 10,3 C 87 % 1008,0 hPa 0,0 mm 0,1 km/h (0 Bft) E 0,00 h 0,000 mm 0 W/m 8,1 C 10,3 C 0,4 km/h (0 Bft)
30/03/2022 01:00 10,5 C 82 % 1007,2 hPa 0,0 mm 0,0 km/h (0 Bft) N 0,00 h 0,000 mm 0 W/m 7,6 C 10,5 C 0,0 km/h (0 Bft)
30/03/2022 02:00 10,6 C 78 % 1006,5 hPa 0,0 mm 0,0 km/h (0 Bft) N 0,00 h 0,025 mm 0 W/m 7,0 C 10,6 C 0,0 km/h (0 Bft)
30/03/2022 03:00 10,8 C 75 % 1005,6 hPa 0,0 mm 0,3 km/h (0 Bft) E 0,00 h 0,025 mm 0 W/m 6,5 C 10,8 C 1,8 km/h (1 Bft)
30/03/2022 04:00 10,8 C 75 % 1004,9 hPa 0,0 mm 0,5 km/h (0 Bft) E-SE 0,00 h 0,025 mm 0 W/m 6,6 C 10,8 C 1,3 km/h (1 Bft)
30/03/2022 05:00 10,4 C 78 % 1004,7 hPa 0,0 mm 0,3 km/h (0 Bft) E-SE 0,00 h 0,025 mm 0 W/m 6,7 C 10,4 C 1,2 km/h (1 Bft)
30/03/2022 06:00 10,6 C 79 % 1004,5 hPa 0,0 mm 0,0 km/h (0 Bft) N 0,00 h 0,025 mm 0 W/m 7,2 C 10,6 C 0,6 km/h (0 Bft)
30/03/2022 07:00 10,7 C 82 % 1004,1 hPa 0,0 mm 0,0 km/h (0 Bft) N 0,00 h 0,025 mm 8 W/m 7,7 C 10,7 C 0,1 km/h (0 Bft)
30/03/2022 08:00 10,8 C 82 % 1004,1 hPa 0,0 mm 0,0 km/h (0 Bft) N 0,00 h 0,000 mm 53 W/m 7,9 C 10,8 C 0,0 km/h (0 Bft)
30/03/2022 09:00 11,5 C 82 % 1003,6 hPa 0,0 mm 0,0 km/h (0 Bft) N 0,00 h 0,025 mm 54 W/m 8,6 C 11,5 C 0,0 km/h (0 Bft)
30/03/2022 10:00 12,6 C 81 % 1003,1 hPa 0,0 mm 0,0 km/h (0 Bft) N 0,00 h 0,025 mm 157 W/m 9,4 C 12,6 C 0,0 km/h (0 Bft)
30/03/2022 11:00 14,7 C 72 % 1002,2 hPa 0,0 mm 0,0 km/h (0 Bft) N 0,00 h 0,076 mm 193 W/m 9,7 C 14,7 C 0,3 km/h (0 Bft)
30/03/2022 12:00 15,4 C 68 % 1001,4 hPa 0,0 mm 0,1 km/h (0 Bft) N-NE 0,00 h 0,102 mm 206 W/m 9,4 C 15,4 C 1,5 km/h (1 Bft)
30/03/2022 13:00 16,2 C 64 % 1000,7 hPa 0,0 mm 1,1 km/h (1 Bft) E 0,00 h 0,127 mm 207 W/m 9,3 C 16,2 C 4,8 km/h (1 Bft)
30/03/2022 14:00 14,8 C 76 % 1000,3 hPa 0,0 mm 2,4 km/h (1 Bft) E 0,00 h 0,127 mm 176 W/m 10,7 C 14,8 C 8,8 km/h (2 Bft)
30/03/2022 15:00 13,6 C 83 % 999,9 hPa 0,0 mm 2,8 km/h (1 Bft) E 0,00 h 0,102 mm 98 W/m 10,6 C 13,6 C 9,8 km/h (2 Bft)
30/03/2022 16:00 12,5 C 86 % 999,1 hPa 0,0 mm 1,3 km/h (1 Bft) E-SE 0,00 h 0,051 mm 60 W/m 10,2 C 12,5 C 5,4 km/h (1 Bft)
30/03/2022 17:00 12,0 C 85 % 998,4 hPa 0,0 mm 1,7 km/h (1 Bft) E 0,00 h 0,025 mm 35 W/m 9,6 C 12,0 C 5,3 km/h (1 Bft)
30/03/2022 18:00 11,3 C 91 % 998,0 hPa 0,2 mm 1,1 km/h (1 Bft) E 0,00 h 0,025 mm 11 W/m 10,0 C 11,3 C 3,3 km/h (1 Bft)
30/03/2022 19:00 11,0 C 93 % 997,8 hPa 2,0 mm 0,0 km/h (0 Bft) N 0,00 h 0,000 mm 0 W/m 10,0 C 11,0 C 0,4 km/h (0 Bft)
30/03/2022 20:00 10,7 C 95 % 997,8 hPa 2,0 mm 0,0 km/h (0 Bft) N 0,00 h 0,000 mm 0 W/m 9,9 C 10,7 C 0,1 km/h (0 Bft)
30/03/2022 21:00 10,5 C 95 % 997,7 hPa 4,2 mm 0,0 km/h (0 Bft) N 0,00 h 0,000 mm 0 W/m 9,8 C 10,5 C 0,0 km/h (0 Bft)
30/03/2022 22:00 10,4 C 96 % 997,2 hPa 2,8 mm 0,3 km/h (0 Bft) O-SO 0,00 h 0,000 mm 0 W/m 9,7 C 10,4 C 1,3 km/h (1 Bft)
30/03/2022 23:00 10,2 C 97 % 996,6 hPa 3,0 mm 1,3 km/h (1 Bft) O-SO 0,00 h 0,000 mm 0 W/m 9,8 C 10,2 C 3,7 km/h (1 Bft)
31/03/2022 00:00 9,8 C 97 % 995,7 hPa 1,6 mm 1,4 km/h (1 Bft) O-NO 0,00 h 0,000 mm 0 W/m 9,4 C 9,8 C 4,4 km/h (1 Bft)
31/03/2022 01:00 9,5 C 97 % 995,0 hPa 0,2 mm 0,2 km/h (0 Bft) O-NO 0,00 h 0,000 mm 0 W/m 9,1 C 9,5 C 0,5 km/h (0 Bft)
31/03/2022 02:00 9,4 C 97 % 994,4 hPa 0,2 mm 0,4 km/h (0 Bft) O-NO 0,00 h 0,000 mm 0 W/m 9,0 C 9,4 C 1,1 km/h (1 Bft)
31/03/2022 03:00 9,4 C 97 % 993,7 hPa 0,2 mm 0,1 km/h (0 Bft) O-NO 0,00 h 0,000 mm 0 W/m 8,9 C 9,4 C 0,5 km/h (0 Bft)
31/03/2022 04:00 9,3 C 97 % 993,2 hPa 0,0 mm 0,0 km/h (0 Bft) N 0,00 h 0,000 mm 0 W/m 8,8 C 9,3 C 0,0 km/h (0 Bft)
31/03/2022 05:00 9,1 C 97 % 992,6 hPa 0,0 mm 0,0 km/h (0 Bft) N 0,00 h 0,000 mm 0 W/m 8,6 C 9,1 C 0,0 km/h (0 Bft)
31/03/2022 06:00 8,7 C 97 % 992,4 hPa 0,0 mm 0,0 km/h (0 Bft) N 0,00 h 0,000 mm 0 W/m 8,3 C 8,7 C 0,0 km/h (0 Bft)
31/03/2022 07:00 8,3 C 97 % 992,2 hPa 0,2 mm 0,0 km/h (0 Bft) N 0,00 h 0,000 mm 11 W/m 7,8 C 8,3 C 0,0 km/h (0 Bft)
31/03/2022 08:00 8,2 C 97 % 992,4 hPa 0,0 mm 0,0 km/h (0 Bft) N 0,02 h 0,000 mm 38 W/m 7,8 C 8,2 C 0,0 km/h (0 Bft)
31/03/2022 09:00 10,5 C 98 % 992,4 hPa 0,0 mm 0,0 km/h (0 Bft) N 1,00 h 0,025 mm 298 W/m 10,2 C 10,5 C 0,0 km/h (0 Bft)
31/03/2022 10:00 14,1 C 89 % 992,2 hPa 0,0 mm 0,1 km/h (0 Bft) O 1,00 h 0,127 mm 460 W/m 12,2 C 14,1 C 0,5 km/h (0 Bft)
31/03/2022 11:00 16,7 C 72 % 991,9 hPa 0,0 mm 0,3 km/h (0 Bft) O-NO 1,00 h 0,229 mm 572 W/m 11,6 C 16,7 C 1,2 km/h (1 Bft)
31/03/2022 12:00 17,8 C 65 % 991,7 hPa 0,0 mm 0,6 km/h (0 Bft) E 1,00 h 0,305 mm 687 W/m 11,2 C 17,8 C 2,7 km/h (1 Bft)
31/03/2022 13:00 17,6 C 66 % 991,2 hPa 0,0 mm 0,0 km/h (0 Bft) N 1,00 h 0,381 mm 703 W/m 11,1 C 17,6 C 1,2 km/h (1 Bft)
31/03/2022 14:00 18,5 C 64 % 990,6 hPa 0,0 mm 0,9 km/h (0 Bft) E 1,00 h 0,381 mm 680 W/m 11,5 C 18,5 C 3,3 km/h (1 Bft)
31/03/2022 15:00 18,5 C 63 % 990,1 hPa 0,0 mm 1,3 km/h (1 Bft) E 1,00 h 0,381 mm 613 W/m 11,2 C 18,5 C 4,7 km/h (1 Bft)
31/03/2022 16:00 17,8 C 63 % 989,6 hPa 0,0 mm 1,0 km/h (0 Bft) E 1,00 h 0,356 mm 501 W/m 10,7 C 17,8 C 4,2 km/h (1 Bft)
31/03/2022 17:00 17,1 C 68 % 989,1 hPa 0,0 mm 0,3 km/h (0 Bft) E-SE 1,00 h 0,279 mm 352 W/m 11,0 C 17,1 C 1,6 km/h (1 Bft)
31/03/2022 18:00 16,2 C 69 % 988,8 hPa 0,0 mm 0,0 km/h (0 Bft) E 0,85 h 0,203 mm 165 W/m 10,5 C 16,2 C 0,3 km/h (0 Bft)
31/03/2022 19:00 14,3 C 71 % 989,0 hPa 0,0 mm 0,0 km/h (0 Bft) N 0,00 h 0,102 mm 21 W/m 9,1 C 14,3 C 0,0 km/h (0 Bft)
31/03/2022 20:00 12,3 C 76 % 989,4 hPa 0,0 mm 0,0 km/h (0 Bft) N 0,00 h 0,025 mm 0 W/m 8,3 C 12,3 C 0,0 km/h (0 Bft)
31/03/2022 21:00 11,1 C 83 % 990,1 hPa 0,0 mm 0,0 km/h (0 Bft) N 0,00 h 0,000 mm 0 W/m 8,3 C 11,1 C 0,0 km/h (0 Bft)
31/03/2022 22:00 10,4 C 88 % 990,7 hPa 0,0 mm 0,0 km/h (0 Bft) N 0,00 h 0,025 mm 0 W/m 8,5 C 10,4 C 0,0 km/h (0 Bft)
31/03/2022 23:00 10,1 C 92 % 990,7 hPa 0,0 mm 0,0 km/h (0 Bft) N 0,00 h 0,000 mm 0 W/m 8,8 C 10,1 C 0,0 km/h (0 Bft)
01/04/2022 00:00 9,5 C 91 % 990,7 hPa 0,0 mm 0,0 km/h (0 Bft) N 0,00 h 0,000 mm 0 W/m 8,2 C 9,5 C 0,0 km/h (0 Bft)
01/04/2022 01:00 8,9 C 89 % 990,7 hPa 0,0 mm 0,0 km/h (0 Bft) N 0,00 h 0,000 mm 0 W/m 7,1 C 8,9 C 0,0 km/h (0 Bft)
01/04/2022 02:00 8,8 C 81 % 990,5 hPa 0,0 mm 0,0 km/h (0 Bft) N 0,00 h 0,000 mm 0 W/m 5,6 C 8,8 C 0,0 km/h (0 Bft)
01/04/2022 03:00 9,0 C 77 % 990,1 hPa 0,0 mm 0,1 km/h (0 Bft) NO 0,00 h 0,000 mm 0 W/m 5,3 C 9,0 C 0,8 km/h (0 Bft)
01/04/2022 04:00 8,7 C 73 % 989,9 hPa 0,0 mm 1,9 km/h (1 Bft) NO 0,00 h 0,000 mm 0 W/m 4,1 C 8,6 C 5,4 km/h (1 Bft)
01/04/2022 05:00 8,1 C 79 % 990,0 hPa 0,0 mm 0,8 km/h (0 Bft) O 0,00 h 0,000 mm 0 W/m 4,6 C 8,1 C 2,8 km/h (1 Bft)
01/04/2022 06:00 7,5 C 75 % 990,0 hPa 0,0 mm 1,3 km/h (1 Bft) O 0,00 h 0,000 mm 0 W/m 3,3 C 7,4 C 3,8 km/h (1 Bft)
01/04/2022 07:00 7,4 C 68 % 990,3 hPa 0,0 mm 1,4 km/h (1 Bft) O 0,02 h 0,000 mm 16 W/m 1,8 C 7,3 C 3,6 km/h (1 Bft)
01/04/2022 08:00 8,8 C 63 % 990,6 hPa 0,0 mm 1,4 km/h (1 Bft) O 0,05 h 0,025 mm 43 W/m 2,2 C 8,6 C 3,3 km/h (1 Bft)
01/04/2022 09:00 10,7 C 61 % 990,9 hPa 0,0 mm 0,5 km/h (0 Bft) O-SO 1,00 h 0,025 mm 332 W/m 3,4 C 10,7 C 2,5 km/h (1 Bft)
01/04/2022 10:00 14,2 C 51 % 990,8 hPa 0,0 mm 1,6 km/h (1 Bft) S-SO 1,00 h 0,152 mm 496 W/m 4,2 C 14,2 C 4,8 km/h (1 Bft)
01/04/2022 11:00 15,3 C 48 % 990,5 hPa 0,0 mm 2,0 km/h (1 Bft) S-SO 0,80 h 0,279 mm 546 W/m 4,5 C 15,3 C 4,9 km/h (1 Bft)
01/04/2022 12:00 16,4 C 46 % 989,9 hPa 0,0 mm 1,5 km/h (1 Bft) S-SE 0,90 h 0,305 mm 651 W/m 4,7 C 16,4 C 4,3 km/h (1 Bft)
01/04/2022 13:00 17,3 C 41 % 989,3 hPa 0,0 mm 4,6 km/h (1 Bft) S-SO 1,00 h 0,356 mm 729 W/m 3,9 C 17,3 C 11,0 km/h (2 Bft)
01/04/2022 14:00 16,2 C 35 % 988,7 hPa 0,0 mm 12,8 km/h (3 Bft) S-SO 1,00 h 0,432 mm 724 W/m 0,9 C 16,2 C 23,0 km/h (4 Bft)
01/04/2022 15:00 15,6 C 35 % 988,0 hPa 0,0 mm 14,6 km/h (3 Bft) S-SO 1,00 h 0,483 mm 648 W/m 0,3 C 15,6 C 25,1 km/h (4 Bft)
01/04/2022 16:00 14,7 C 36 % 987,4 hPa 0,0 mm 15,1 km/h (3 Bft) S-SO 1,00 h 0,457 mm 532 W/m -0,2 C 14,7 C 26,3 km/h (4 Bft)
01/04/2022 17:00 13,6 C 36 % 987,2 hPa 0,0 mm 11,6 km/h (2 Bft) S-SO 1,00 h 0,381 mm 393 W/m -1,3 C 13,6 C 22,4 km/h (4 Bft)
01/04/2022 18:00 12,9 C 34 % 987,6 hPa 0,0 mm 6,9 km/h (2 Bft) NO 0,87 h 0,279 mm 194 W/m -2,6 C 12,9 C 15,4 km/h (3 Bft)
01/04/2022 19:00 10,2 C 39 % 988,0 hPa 0,0 mm 5,7 km/h (1 Bft) SO 0,00 h 0,152 mm 24 W/m -3,2 C 9,9 C 12,9 km/h (3 Bft)
01/04/2022 20:00 8,1 C 43 % 988,7 hPa 0,0 mm 4,9 km/h (1 Bft) O-SO 0,00 h 0,051 mm 0 W/m -3,6 C 7,6 C 10,6 km/h (2 Bft)
01/04/2022 21:00 7,5 C 44 % 989,3 hPa 0,0 mm 4,4 km/h (1 Bft) O-NO 0,00 h 0,025 mm 0 W/m -3,9 C 7,0 C 9,6 km/h (2 Bft)
01/04/2022 22:00 7,3 C 44 % 989,5 hPa 0,0 mm 2,5 km/h (1 Bft) O-NO 0,00 h 0,051 mm 0 W/m -4,0 C 7,1 C 6,0 km/h (2 Bft)
01/04/2022 23:00 6,9 C 48 % 990,0 hPa 0,0 mm 0,8 km/h (0 Bft) O-NO 0,00 h 0,051 mm 0 W/m -3,5 C 6,8 C 1,9 km/h (1 Bft)
02/04/2022 00:00 6,5 C 52 % 990,6 hPa 0,0 mm 0,4 km/h (0 Bft) NO 0,00 h 0,025 mm 0 W/m -2,7 C 6,5 C 1,4 km/h (1 Bft)
02/04/2022 01:00 6,0 C 63 % 991,2 hPa 0,0 mm 3,3 km/h (1 Bft) NO 0,00 h 0,025 mm 0 W/m -0,5 C 5,6 C 6,3 km/h (2 Bft)
02/04/2022 02:00 4,2 C 83 % 992,1 hPa 0,8 mm 6,0 km/h (2 Bft) NO 0,00 h 0,025 mm 0 W/m 1,5 C 3,0 C 10,8 km/h (2 Bft)
02/04/2022 03:00 3,4 C 89 % 993,0 hPa 2,0 mm 1,4 km/h (1 Bft) SO 0,00 h 0,025 mm 0 W/m 1,8 C 3,3 C 3,6 km/h (1 Bft)
02/04/2022 04:00 2,5 C 92 % 993,2 hPa 1,8 mm 5,5 km/h (1 Bft) O-NO 0,00 h 0,000 mm 0 W/m 1,3 C 1,1 C 11,0 km/h (2 Bft)
02/04/2022 05:00 2,0 C 93 % 993,3 hPa 0,0 mm 3,9 km/h (1 Bft) O 0,00 h 0,000 mm 0 W/m 1,1 C 1,4 C 8,1 km/h (2 Bft)
02/04/2022 06:00 1,6 C 93 % 993,6 hPa 0,0 mm 1,8 km/h (1 Bft) O-NO 0,00 h 0,000 mm 0 W/m 0,6 C 1,4 C 4,2 km/h (1 Bft)
02/04/2022 07:00 1,3 C 93 % 993,9 hPa 0,0 mm 0,4 km/h (0 Bft) O-NO 0,00 h 0,000 mm 16 W/m 0,3 C 1,3 C 1,2 km/h (1 Bft)
02/04/2022 08:00 2,3 C 95 % 994,5 hPa 0,0 mm 0,0 km/h (0 Bft) N 0,07 h 0,000 mm 46 W/m 1,6 C 2,3 C 0,1 km/h (0 Bft)
02/04/2022 09:00 5,3 C 90 % 995,1 hPa 0,0 mm 0,0 km/h (0 Bft) N 1,00 h 0,025 mm 328 W/m 3,7 C 5,3 C 0,0 km/h (0 Bft)
02/04/2022 10:00 9,5 C 64 % 995,7 hPa 0,0 mm 0,5 km/h (0 Bft) S 1,00 h 0,127 mm 503 W/m 3,1 C 9,5 C 1,2 km/h (1 Bft)
02/04/2022 11:00 12,1 C 52 % 996,1 hPa 0,0 mm 3,1 km/h (1 Bft) S 1,00 h 0,229 mm 650 W/m 2,5 C 12,1 C 6,8 km/h (2 Bft)
02/04/2022 12:00 12,9 C 46 % 996,5 hPa 0,0 mm 5,7 km/h (1 Bft) S 0,63 h 0,330 mm 572 W/m 1,6 C 12,9 C 10,7 km/h (2 Bft)
02/04/2022 13:00 11,1 C 52 % 997,5 hPa 0,0 mm 3,0 km/h (1 Bft) E 0,15 h 0,330 mm 248 W/m 1,6 C 11,1 C 7,5 km/h (2 Bft)
02/04/2022 14:00 12,0 C 58 % 998,7 hPa 0,0 mm 3,8 km/h (1 Bft) E 0,62 h 0,152 mm 481 W/m 4,0 C 12,0 C 9,8 km/h (2 Bft)
02/04/2022 15:00 10,6 C 69 % 999,8 hPa 0,0 mm 1,7 km/h (1 Bft) E 0,38 h 0,254 mm 354 W/m 5,2 C 10,5 C 4,9 km/h (1 Bft)
02/04/2022 16:00 12,5 C 61 % 999,9 hPa 0,0 mm 1,0 km/h (0 Bft) E-SE 0,30 h 0,178 mm 311 W/m 5,3 C 12,5 C 3,2 km/h (1 Bft)
02/04/2022 17:00 10,0 C 70 % 1000,7 hPa 0,0 mm 2,2 km/h (1 Bft) E-SE 0,00 h 0,152 mm 123 W/m 4,7 C 10,0 C 6,1 km/h (2 Bft)
02/04/2022 18:00 9,2 C 74 % 1001,8 hPa 0,0 mm 1,2 km/h (1 Bft) E 0,00 h 0,076 mm 54 W/m 4,9 C 9,2 C 2,9 km/h (1 Bft)
02/04/2022 19:00 8,6 C 75 % 1002,8 hPa 0,0 mm 1,2 km/h (1 Bft) O-SO 0,03 h 0,025 mm 12 W/m 4,5 C 8,6 C 2,9 km/h (1 Bft)
02/04/2022 20:00 7,6 C 78 % 1003,9 hPa 0,0 mm 0,0 km/h (0 Bft) O-SO 0,00 h 0,000 mm 0 W/m 4,1 C 7,6 C 0,2 km/h (0 Bft)
02/04/2022 21:00 7,3 C 81 % 1004,9 hPa 0,0 mm 0,5 km/h (0 Bft) O-SO 0,00 h 0,000 mm 0 W/m 4,2 C 7,3 C 1,8 km/h (1 Bft)
02/04/2022 22:00 7,0 C 82 % 1005,7 hPa 0,0 mm 0,0 km/h (0 Bft) O-SO 0,00 h 0,025 mm 0 W/m 4,1 C 7,0 C 0,1 km/h (0 Bft)
02/04/2022 23:00 6,3 C 84 % 1006,3 hPa 0,0 mm 0,4 km/h (0 Bft) O-SO 0,00 h 0,000 mm 0 W/m 3,8 C 6,3 C 1,0 km/h (0 Bft)
03/04/2022 00:00 5,6 C 87 % 1007,0 hPa 0,0 mm 2,3 km/h (1 Bft) O-SO 0,00 h 0,000 mm 0 W/m 3,6 C 5,6 C 4,6 km/h (1 Bft)
03/04/2022 01:00 5,1 C 87 % 1007,4 hPa 0,0 mm 2,1 km/h (1 Bft) O-SO 0,00 h 0,000 mm 0 W/m 3,1 C 5,1 C 3,9 km/h (1 Bft)
03/04/2022 02:00 5,0 C 84 % 1007,9 hPa 0,0 mm 1,4 km/h (1 Bft) O-SO 0,00 h 0,000 mm 0 W/m 2,5 C 4,9 C 2,9 km/h (1 Bft)
03/04/2022 03:00 5,1 C 80 % 1008,2 hPa 0,0 mm 0,6 km/h (0 Bft) O-SO 0,00 h 0,000 mm 0 W/m 2,0 C 5,1 C 1,7 km/h (1 Bft)
03/04/2022 04:00 4,8 C 80 % 1008,3 hPa 0,0 mm 0,2 km/h (0 Bft) O-SO 0,00 h 0,000 mm 0 W/m 1,7 C 4,8 C 1,6 km/h (1 Bft)
03/04/2022 05:00 4,5 C 80 % 1008,8 hPa 0,0 mm 1,0 km/h (0 Bft) O-SO 0,00 h 0,000 mm 0 W/m 1,3 C 4,5 C 2,3 km/h (1 Bft)
03/04/2022 06:00 4,1 C 81 % 1009,0 hPa 0,0 mm 0,9 km/h (0 Bft) O-SO 0,00 h 0,025 mm 0 W/m 1,1 C 4,1 C 2,8 km/h (1 Bft)
03/04/2022 07:00 4,4 C 80 % 1009,6 hPa 0,0 mm 1,1 km/h (1 Bft) O-SO 0,00 h 0,000 mm 14 W/m 1,1 C 4,4 C 2,9 km/h (1 Bft)
03/04/2022 08:00 5,5 C 78 % 1010,4 hPa 0,0 mm 0,2 km/h (0 Bft) O-SO 0,00 h 0,000 mm 36 W/m 2,1 C 5,5 C 0,7 km/h (0 Bft)
03/04/2022 09:00 8,8 C 71 % 1011,1 hPa 0,0 mm 0,1 km/h (0 Bft) N 0,92 h 0,025 mm 323 W/m 3,9 C 8,8 C 0,4 km/h (0 Bft)
03/04/2022 10:00 13,2 C 60 % 1011,6 hPa 0,0 mm 1,0 km/h (0 Bft) E 1,00 h 0,152 mm 488 W/m 5,5 C 13,2 C 3,7 km/h (1 Bft)
03/04/2022 11:00 13,2 C 58 % 1012,5 hPa 0,0 mm 5,6 km/h (1 Bft) E 0,58 h 0,254 mm 436 W/m 5,1 C 13,2 C 11,5 km/h (2 Bft)
03/04/2022 12:00 8,9 C 80 % 1013,3 hPa 0,0 mm 6,3 km/h (2 Bft) S 0,00 h 0,254 mm 163 W/m 5,7 C 8,1 C 10,4 km/h (2 Bft)
03/04/2022 13:00 10,3 C 78 % 1013,2 hPa 0,0 mm 0,6 km/h (0 Bft) SO 0,43 h 0,076 mm 435 W/m 6,7 C 10,3 C 2,8 km/h (1 Bft)
03/04/2022 14:00 12,0 C 65 % 1013,0 hPa 0,0 mm 1,6 km/h (1 Bft) E 0,05 h 0,203 mm 306 W/m 5,6 C 12,0 C 4,5 km/h (1 Bft)
03/04/2022 15:00 12,1 C 66 % 1013,0 hPa 0,0 mm 1,5 km/h (1 Bft) E 0,18 h 0,152 mm 315 W/m 5,8 C 12,1 C 4,2 km/h (1 Bft)
03/04/2022 16:00 11,6 C 72 % 1013,0 hPa 0,2 mm 1,2 km/h (1 Bft) E 0,17 h 0,152 mm 223 W/m 6,7 C 11,6 C 3,4 km/h (1 Bft)
03/04/2022 17:00 11,5 C 67 % 1013,0 hPa 0,0 mm 1,8 km/h (1 Bft) E-SE 0,10 h 0,127 mm 207 W/m 5,7 C 11,5 C 4,9 km/h (1 Bft)
03/04/2022 18:00 10,7 C 70 % 1013,3 hPa 0,0 mm 1,0 km/h (0 Bft) E 0,00 h 0,102 mm 68 W/m 5,5 C 10,7 C 3,0 km/h (1 Bft)
03/04/2022 19:00 9,8 C 73 % 1013,3 hPa 0,0 mm 0,6 km/h (0 Bft) E-SE 0,00 h 0,051 mm 22 W/m 5,1 C 9,8 C 2,2 km/h (1 Bft)
03/04/2022 20:00 8,1 C 75 % 1013,8 hPa 0,0 mm 2,3 km/h (1 Bft) N-NO 0,00 h 0,025 mm 0 W/m 4,0 C 8,0 C 6,3 km/h (2 Bft)
03/04/2022 21:00 6,5 C 85 % 1014,6 hPa 0,8 mm 0,9 km/h (0 Bft) N-NO 0,00 h 0,000 mm 0 W/m 4,3 C 6,5 C 2,3 km/h (1 Bft)
03/04/2022 22:00 5,9 C 91 % 1015,3 hPa 0,6 mm 1,6 km/h (1 Bft) N-NO 0,00 h 0,000 mm 0 W/m 4,6 C 5,9 C 3,7 km/h (1 Bft)
03/04/2022 23:00 5,4 C 93 % 1015,9 hPa 0,0 mm 2,6 km/h (1 Bft) NO 0,00 h 0,000 mm 0 W/m 4,4 C 5,2 C 4,7 km/h (1 Bft)
Min-Date _ 02/04/22 28/03/22 01/04/22 - 28/03/22 - - - - 28/03/22 02/04/22 28/03/22
_ Min-Heure 07:08 12:53 16:45 - 00:00 - - - - 04:36 04:21 00:01
Minimum _ 1,2 C 18 % 987,2 hPa - 0,0 km/h (0 Bft) - - - - -7,1 C -1,0 C 0,0 km/h (0 Bft)
Max-Date _ 28/03/22 31/03/22 28/03/22 30/03/22 01/04/22 - 28/03/22 01/04/22 03/04/22 31/03/22 28/03/22 01/04/22
_ Max-Heure 12:57 09:25 00:00 21:00 15:37 - 09:11 15:00 13:52 10:25 12:57 15:37
Maximum _ 24,1 C 99 % 1025,2 hPa 4,2 mm 30,6 km/h
S-SO (5 Bft)
- 0,02 h 0,483 mm 990 W/m 13,0 C 24,1 C 41,8 km/h
SO (6 Bft)
Moyenne _ 11,5 C 65 % 1004,1 hPa #22,8 mm 1,4 km/h (1 Bft) E #44:31 h #17,239 mm 305 W/m 4,0 C 11,5 C 3,4 km/h (1 Bft)
Roquefort les pins